createdAt,value
2018-08-20T00:00:52.528Z,21.51
2018-08-20T00:05:56.852Z,21.55
2018-08-20T00:11:00.544Z,21.60
2018-08-20T00:16:04.152Z,21.62
2018-08-20T00:21:07.900Z,21.55
2018-08-20T00:26:11.558Z,21.61
2018-08-20T00:31:17.006Z,21.64
2018-08-20T00:36:20.549Z,21.62
2018-08-20T00:41:24.206Z,21.58
2018-08-20T00:46:27.873Z,21.58
2018-08-20T00:51:32.366Z,21.53
2018-08-20T00:56:36.056Z,21.53
2018-08-20T01:01:39.829Z,21.52
2018-08-20T01:06:43.586Z,21.50
2018-08-20T01:11:47.191Z,21.47
2018-08-20T01:16:50.715Z,21.40
2018-08-20T01:21:54.324Z,21.41
2018-08-20T01:26:57.878Z,21.39
2018-08-20T01:32:02.034Z,21.39
2018-08-20T01:37:05.640Z,21.36
2018-08-20T01:42:09.274Z,21.31
2018-08-20T01:47:13.015Z,21.30
2018-08-20T01:52:16.711Z,21.29
2018-08-20T01:57:20.277Z,21.27
2018-08-20T02:02:24.022Z,21.24
2018-08-20T02:07:28.401Z,21.20
2018-08-20T02:12:32.138Z,21.16
2018-08-20T02:17:35.760Z,21.08
2018-08-20T02:22:39.377Z,21.00
2018-08-20T02:27:43.081Z,20.99
2018-08-20T02:32:46.810Z,20.95
2018-08-20T02:37:50.657Z,20.95
2018-08-20T02:42:54.398Z,20.94
2018-08-20T02:47:58.107Z,20.91
2018-08-20T02:53:01.830Z,20.93
2018-08-20T02:58:05.648Z,20.92
2018-08-20T03:03:09.314Z,20.90
2018-08-20T03:08:12.938Z,20.83
2018-08-20T03:13:16.619Z,20.82
2018-08-20T03:18:20.133Z,20.69
2018-08-20T03:23:24.077Z,20.76
2018-08-20T03:28:27.745Z,20.80
2018-08-20T03:33:31.389Z,20.71
2018-08-20T03:38:34.898Z,20.61
2018-08-20T03:43:38.518Z,20.59
2018-08-20T03:48:42.153Z,20.54
2018-08-20T03:53:45.813Z,20.55
2018-08-20T03:58:49.714Z,20.59
2018-08-20T04:03:54.245Z,20.61
2018-08-20T04:08:57.900Z,20.54
2018-08-20T04:14:01.657Z,20.51
2018-08-20T04:19:07.519Z,20.50
2018-08-20T04:24:11.192Z,20.47
2018-08-20T04:29:14.718Z,20.51
2018-08-20T04:34:18.307Z,20.44
2018-08-20T04:39:21.836Z,20.43
2018-08-20T04:44:26.041Z,20.44
2018-08-20T04:49:29.560Z,20.40
2018-08-20T04:54:33.204Z,20.43
2018-08-20T04:59:36.842Z,20.50
2018-08-20T05:04:40.465Z,20.70
2018-08-20T05:09:43.988Z,20.72
2018-08-20T05:14:48.482Z,20.61
2018-08-20T05:19:52.189Z,20.53
2018-08-20T05:24:55.844Z,20.56
2018-08-20T05:29:59.360Z,20.46
2018-08-20T05:35:03.668Z,20.33
2018-08-20T05:40:07.385Z,20.62
2018-08-20T05:45:12.134Z,20.70
2018-08-20T05:50:15.884Z,20.66
2018-08-20T05:55:19.566Z,20.60
2018-08-20T06:00:33.104Z,20.65
2018-08-20T06:05:36.761Z,20.61
2018-08-20T06:10:40.286Z,20.55
2018-08-20T06:15:44.034Z,20.63
2018-08-20T06:20:48.371Z,20.68
2018-08-20T06:25:52.031Z,20.72
2018-08-20T06:30:55.542Z,20.84
2018-08-20T06:35:59.160Z,20.65
2018-08-20T06:41:02.865Z,20.77
2018-08-20T06:46:06.615Z,20.80
2018-08-20T06:51:10.390Z,20.82
2018-08-20T06:56:14.038Z,20.85
2018-08-20T07:01:17.656Z,20.93
2018-08-20T07:06:21.403Z,20.94
2018-08-20T07:11:24.880Z,21.07
2018-08-20T07:16:29.117Z,21.02
2018-08-20T07:21:32.643Z,20.96
2018-08-20T07:26:36.314Z,21.17
2018-08-20T07:31:39.849Z,21.33
2018-08-20T07:36:43.451Z,21.44
2018-08-20T07:41:47.024Z,21.32
2018-08-20T07:46:50.654Z,21.34
2018-08-20T07:51:56.727Z,21.49
2018-08-20T07:57:00.375Z,21.70
2018-08-20T08:02:04.031Z,21.86
2018-08-20T08:07:08.258Z,21.99
2018-08-20T08:12:11.952Z,22.43
2018-08-20T08:17:16.464Z,22.64
2018-08-20T08:22:20.130Z,22.47
2018-08-20T08:27:23.958Z,22.37
2018-08-20T08:32:27.593Z,22.38
2018-08-20T08:37:31.217Z,22.51
2018-08-20T08:42:35.123Z,22.81
2018-08-20T08:47:38.731Z,22.81
2018-08-20T08:52:47.632Z,22.87
2018-08-20T08:57:51.409Z,22.44
2018-08-20T09:02:55.025Z,22.57
2018-08-20T09:07:58.698Z,22.56
2018-08-20T09:13:02.353Z,22.69
2018-08-20T09:18:06.817Z,22.85
2018-08-20T09:23:10.621Z,23.25
2018-08-20T09:28:14.311Z,23.36
2018-08-20T09:33:18.140Z,23.55
2018-08-20T09:38:21.822Z,23.62
2018-08-20T09:43:26.061Z,23.62
2018-08-20T09:48:30.019Z,24.10
2018-08-20T09:53:33.623Z,24.45
2018-08-20T09:58:37.177Z,24.64
2018-08-20T10:03:46.952Z,23.76
2018-08-20T10:08:50.922Z,23.93
2018-08-20T10:13:55.912Z,23.97
2018-08-20T10:18:59.681Z,23.92
2018-08-20T10:24:03.261Z,23.85
2018-08-20T10:29:06.820Z,23.97
2018-08-20T10:34:11.297Z,23.83
2018-08-20T10:39:15.555Z,24.12
2018-08-20T10:44:19.172Z,24.02
2018-08-20T10:49:22.750Z,24.08
2018-08-20T10:54:26.953Z,23.79
2018-08-20T10:59:42.573Z,23.70
2018-08-20T11:04:46.201Z,23.49
2018-08-20T11:09:49.908Z,23.31
2018-08-20T11:14:53.538Z,23.17
2018-08-20T11:19:57.057Z,22.99
2018-08-20T11:25:00.700Z,22.83
2018-08-20T11:30:05.310Z,22.73
2018-08-20T11:35:10.128Z,22.55
2018-08-20T11:40:13.885Z,22.26
2018-08-20T11:45:17.495Z,21.90
2018-08-20T11:50:21.108Z,21.98
2018-08-20T11:55:24.931Z,21.94
2018-08-20T12:00:33.748Z,21.69
2018-08-20T12:05:37.409Z,21.81
2018-08-20T12:10:40.926Z,21.99
2018-08-20T12:15:44.675Z,22.24
2018-08-20T12:20:48.220Z,22.18
2018-08-20T12:25:52.349Z,22.27
2018-08-20T12:30:56.109Z,22.30
2018-08-20T12:36:00.122Z,22.28
2018-08-20T12:41:03.640Z,22.45
2018-08-20T12:46:07.266Z,22.74
2018-08-20T12:51:10.856Z,22.78
2018-08-20T12:56:14.471Z,23.05
2018-08-20T13:01:18.255Z,23.47
2018-08-20T13:06:21.859Z,23.82
2018-08-20T13:11:25.501Z,24.15
2018-08-20T13:16:29.236Z,24.27
2018-08-20T13:21:32.754Z,24.31
2018-08-20T13:26:37.288Z,24.62
2018-08-20T13:31:41.334Z,24.51
2018-08-20T13:36:45.320Z,24.60
2018-08-20T13:41:48.988Z,24.79
2018-08-20T13:46:52.705Z,24.57
2018-08-20T13:51:56.213Z,24.69
2018-08-20T13:56:59.870Z,25.07
2018-08-20T14:02:04.121Z,25.24
2018-08-20T14:07:13.841Z,25.47
2018-08-20T14:12:17.489Z,25.43
2018-08-20T14:17:21.101Z,25.46
2018-08-20T14:22:25.448Z,25.36
2018-08-20T14:27:29.080Z,25.26
2018-08-20T14:32:32.571Z,25.38
2018-08-20T14:37:36.197Z,25.58
2018-08-20T14:42:39.676Z,25.89
2018-08-20T14:47:44.686Z,26.05
2018-08-20T14:52:48.298Z,25.70
2018-08-20T14:57:51.954Z,25.50
2018-08-20T15:02:55.475Z,25.48
2018-08-20T15:07:59.068Z,25.53
2018-08-20T15:13:02.645Z,25.24
2018-08-20T15:18:06.560Z,25.29
2018-08-20T15:23:10.656Z,25.33
2018-08-20T15:28:14.308Z,25.28
2018-08-20T15:33:17.918Z,25.27
2018-08-20T15:38:21.482Z,25.01
2018-08-20T15:43:25.117Z,24.90
2018-08-20T15:48:28.745Z,25.00
2018-08-20T15:53:32.416Z,24.83
2018-08-20T15:58:36.000Z,24.66
2018-08-20T16:03:39.632Z,24.73
2018-08-20T16:08:43.267Z,24.74
2018-08-20T16:13:46.764Z,24.70
2018-08-20T16:18:51.432Z,24.73
2018-08-20T16:23:54.971Z,24.66
2018-08-20T16:28:58.607Z,24.49
2018-08-20T16:34:02.133Z,24.33
2018-08-20T16:39:09.696Z,24.27
2018-08-20T16:44:13.307Z,24.32
2018-08-20T16:49:17.377Z,24.34
2018-08-20T16:54:20.966Z,24.34
2018-08-20T16:59:24.656Z,24.17
2018-08-20T17:04:43.058Z,24.26
2018-08-20T17:09:47.086Z,24.15
2018-08-20T17:14:50.783Z,24.00
2018-08-20T17:19:54.386Z,23.81
2018-08-20T17:24:58.017Z,23.71
2018-08-20T17:30:01.658Z,23.55
2018-08-20T17:35:09.372Z,23.58
2018-08-20T17:40:13.092Z,23.49
2018-08-20T17:45:31.973Z,23.48
2018-08-20T17:50:42.992Z,23.43
2018-08-20T17:55:46.645Z,23.29
2018-08-20T18:00:53.422Z,23.19
2018-08-20T18:06:01.139Z,23.16
2018-08-20T18:11:05.676Z,23.02
2018-08-20T18:16:11.342Z,23.04
2018-08-20T18:21:15.045Z,22.96
2018-08-20T18:26:18.580Z,22.83
2018-08-20T18:31:24.626Z,22.84
2018-08-20T18:36:31.907Z,22.71
2018-08-20T18:42:17.948Z,22.56
2018-08-20T18:47:21.527Z,22.80
2018-08-20T18:52:27.626Z,22.74
2018-08-20T18:57:34.698Z,22.77
2018-08-20T19:02:42.561Z,22.66
2018-08-20T19:07:46.662Z,22.59
2018-08-20T19:12:50.476Z,22.53
2018-08-20T19:17:54.839Z,22.42
2018-08-20T19:22:58.636Z,22.45
2018-08-20T19:28:07.801Z,22.36
2018-08-20T19:33:16.514Z,22.29
2018-08-20T19:38:20.796Z,22.18
2018-08-20T19:43:24.546Z,22.18
2018-08-20T19:48:28.246Z,22.11
2018-08-20T19:53:31.960Z,22.00
2018-08-20T19:58:35.712Z,22.01
2018-08-20T20:03:44.604Z,21.97
2018-08-20T20:08:48.847Z,21.88
2018-08-20T20:13:55.991Z,21.86
2018-08-20T20:18:59.916Z,21.84
2018-08-20T20:24:03.699Z,21.78
2018-08-20T20:29:08.676Z,21.76
2018-08-20T20:34:12.307Z,21.75
2018-08-20T20:39:16.061Z,21.64
2018-08-20T20:44:19.729Z,21.61
2018-08-20T20:49:23.266Z,21.56
2018-08-20T20:54:26.898Z,21.57
2018-08-20T20:59:30.643Z,21.57
2018-08-20T21:04:36.190Z,21.56
2018-08-20T21:09:45.017Z,21.42
2018-08-20T21:14:49.018Z,21.36
2018-08-20T21:19:52.494Z,21.37
2018-08-20T21:24:56.188Z,21.38
2018-08-20T21:30:01.144Z,21.29
2018-08-20T21:35:05.173Z,21.21
2018-08-20T21:40:09.398Z,21.13
2018-08-20T21:45:13.694Z,21.14
2018-08-20T21:50:17.386Z,21.08
2018-08-20T21:55:21.056Z,21.00
2018-08-20T22:00:32.037Z,20.99
2018-08-20T22:05:35.713Z,20.89
2018-08-20T22:10:39.291Z,20.81
2018-08-20T22:15:43.041Z,20.77
2018-08-20T22:20:46.878Z,20.73
2018-08-20T22:25:55.094Z,20.77
2018-08-20T22:30:58.714Z,20.80
2018-08-20T22:36:02.855Z,20.77
2018-08-20T22:41:06.998Z,20.80
2018-08-20T22:46:10.652Z,20.81
2018-08-20T22:51:16.935Z,20.82
2018-08-20T22:56:36.701Z,20.86
2018-08-20T23:01:40.498Z,20.89
2018-08-20T23:06:44.518Z,20.92
2018-08-20T23:11:48.095Z,20.87
2018-08-20T23:16:53.362Z,20.69
2018-08-20T23:21:56.885Z,20.65
2018-08-20T23:27:00.626Z,20.53
2018-08-20T23:32:04.329Z,20.51
2018-08-20T23:37:08.866Z,20.48
2018-08-20T23:42:12.494Z,20.52
2018-08-20T23:47:16.192Z,20.50
2018-08-20T23:52:19.849Z,20.53
2018-08-20T23:57:24.333Z,20.52
